createdAt,value
2018-09-01T00:00:09.714Z,101614.78
2018-09-01T00:05:13.563Z,101616.22
2018-09-01T00:10:17.102Z,101611.06
2018-09-01T00:15:20.689Z,101611.61
2018-09-01T00:20:24.278Z,101609.98
2018-09-01T00:25:27.809Z,101615.27
2018-09-01T00:30:31.584Z,101617.42
2018-09-01T00:35:35.410Z,101615.31
2018-09-01T00:40:39.035Z,101616.67
2018-09-01T00:45:43.253Z,101623.73
2018-09-01T00:50:46.838Z,101629.92
2018-09-01T00:55:51.403Z,101622.64
2018-09-01T01:00:54.996Z,101621.44
2018-09-01T01:05:58.674Z,101629.42
2018-09-01T01:11:02.241Z,101635.20
2018-09-01T01:16:15.718Z,101635.72
2018-09-01T01:21:19.312Z,101635.76
2018-09-01T01:26:23.003Z,101630.61
2018-09-01T01:31:26.856Z,101636.72
2018-09-01T01:36:30.654Z,101626.30
2018-09-01T01:41:34.341Z,101633.77
2018-09-01T01:46:37.931Z,101639.00
2018-09-01T01:51:41.614Z,101636.01
2018-09-01T01:56:46.386Z,101638.62
2018-09-01T02:01:50.205Z,101639.52
2018-09-01T02:06:54.044Z,101653.47
2018-09-01T02:11:58.212Z,101649.98
2018-09-01T02:17:02.051Z,101656.94
2018-09-01T02:22:05.818Z,101659.12
2018-09-01T02:27:09.582Z,101663.88
2018-09-01T02:32:13.892Z,101657.32
2018-09-01T02:37:17.570Z,101668.20
2018-09-01T02:42:21.158Z,101662.53
2018-09-01T02:47:24.727Z,101668.61
2018-09-01T02:52:28.700Z,101669.03
2018-09-01T02:57:32.398Z,101669.89
2018-09-01T03:02:41.279Z,101668.14
2018-09-01T03:07:44.961Z,101671.59
2018-09-01T03:12:49.465Z,101672.44
2018-09-01T03:17:53.030Z,101668.07
2018-09-01T03:23:04.624Z,101668.89
2018-09-01T03:28:08.182Z,101671.91
2018-09-01T03:33:11.801Z,101670.17
2018-09-01T03:38:15.333Z,101665.77
2018-09-01T03:43:18.893Z,101662.69
2018-09-01T03:48:22.426Z,101669.58
2018-09-01T03:53:26.283Z,101670.87
2018-09-01T03:58:29.897Z,101664.73
2018-09-01T04:03:33.498Z,101664.76
2018-09-01T04:08:37.158Z,101671.63
2018-09-01T04:13:40.752Z,101672.03
2018-09-01T04:18:44.707Z,101680.71
2018-09-01T04:23:48.267Z,101673.72
2018-09-01T04:28:52.307Z,101668.07
2018-09-01T04:33:56.388Z,101671.42
2018-09-01T04:38:59.963Z,101682.75
2018-09-01T04:44:03.638Z,101687.09
2018-09-01T04:49:07.181Z,101691.83
2018-09-01T04:54:10.754Z,101708.55
2018-09-01T04:59:14.262Z,101711.70
2018-09-01T05:04:18.613Z,101717.40
2018-09-01T05:09:22.282Z,101723.17
2018-09-01T05:14:25.884Z,101720.61
2018-09-01T05:19:30.219Z,101722.83
2018-09-01T05:24:34.182Z,101739.44
2018-09-01T05:29:37.724Z,101737.60
2018-09-01T05:34:41.452Z,101731.09
2018-09-01T05:39:45.123Z,101737.25
2018-09-01T05:44:48.728Z,101733.94
2018-09-01T05:49:52.941Z,101749.08
2018-09-01T05:54:57.214Z,101757.61
2018-09-01T06:00:00.758Z,101763.84
2018-09-01T06:05:04.987Z,101776.12
2018-09-01T06:10:08.483Z,101778.38
2018-09-01T06:15:12.229Z,101779.75
2018-09-01T06:20:15.857Z,101787.62
2018-09-01T06:25:19.433Z,101775.40
2018-09-01T06:30:31.850Z,101789.32
2018-09-01T06:35:35.482Z,101791.91
2018-09-01T06:40:39.156Z,101800.56
2018-09-01T06:45:43.148Z,101803.08
2018-09-01T06:50:47.236Z,101800.30
2018-09-01T06:55:51.506Z,101801.52
2018-09-01T07:00:55.031Z,101806.19
2018-09-01T07:06:04.574Z,101799.94
2018-09-01T07:11:08.253Z,101808.58
2018-09-01T07:16:11.996Z,101810.99
2018-09-01T07:21:15.717Z,101808.57
2018-09-01T07:26:19.475Z,101813.34
2018-09-01T07:31:23.516Z,101819.63
2018-09-01T07:36:26.790Z,101830.00
2018-09-01T07:41:30.940Z,101827.27
2018-09-01T07:46:35.454Z,101828.88
2018-09-01T07:51:39.184Z,101835.48
2018-09-01T07:56:43.211Z,101835.86
2018-09-01T08:01:46.724Z,101841.00
2018-09-01T08:06:50.266Z,101846.03
2018-09-01T08:11:53.896Z,101848.18
2018-09-01T08:16:57.868Z,101856.91
2018-09-01T08:22:02.470Z,101854.40
2018-09-01T08:27:06.017Z,101852.94
2018-09-01T08:32:09.598Z,101849.62
2018-09-01T08:37:13.419Z,101858.13
2018-09-01T08:42:23.075Z,101857.70
2018-09-01T08:47:27.192Z,101855.30
2018-09-01T08:52:30.898Z,101854.33
2018-09-01T08:57:34.782Z,101857.64
2018-09-01T09:02:39.382Z,101862.69
2018-09-01T09:07:42.947Z,101859.28
2018-09-01T09:12:47.036Z,101863.95
2018-09-01T09:17:54.573Z,101864.17
2018-09-01T09:23:03.654Z,101861.28
2018-09-01T09:28:10.241Z,101864.20
2018-09-01T09:33:17.340Z,101858.50
2018-09-01T09:38:23.983Z,101865.98
2018-09-01T09:43:30.782Z,101862.79
2018-09-01T09:48:37.129Z,101862.11
2018-09-01T09:53:40.736Z,101860.37
2018-09-01T09:58:44.292Z,101873.58
2018-09-01T10:03:48.190Z,101862.16
2018-09-01T10:08:52.184Z,101867.25
2018-09-01T10:13:55.928Z,101860.91
2018-09-01T10:18:59.479Z,101865.13
2018-09-01T10:24:03.301Z,101868.66
2018-09-01T10:29:06.997Z,101867.11
2018-09-01T10:34:10.627Z,101860.65
2018-09-01T10:39:14.317Z,101855.50
2018-09-01T10:44:18.869Z,101849.58
2018-09-01T10:49:22.515Z,101852.74
2018-09-01T10:54:26.096Z,101846.83
2018-09-01T10:59:29.737Z,101838.83
2018-09-01T11:04:33.210Z,101835.92
2018-09-01T11:09:36.835Z,101827.69
2018-09-01T11:14:40.681Z,101823.67
2018-09-01T11:19:44.571Z,101818.79
2018-09-01T11:24:48.214Z,101822.16
2018-09-01T11:29:51.785Z,101821.13
2018-09-01T11:34:56.265Z,101817.34
2018-09-01T11:39:59.849Z,101813.23
2018-09-01T11:45:03.713Z,101820.73
2018-09-01T11:50:07.221Z,101809.27
2018-09-01T11:55:11.473Z,101811.53
2018-09-01T12:00:21.384Z,101809.34
2018-09-01T12:05:25.752Z,101809.16
2018-09-01T12:10:29.365Z,101805.25
2018-09-01T12:15:33.064Z,101797.48
2018-09-01T12:20:36.660Z,101792.94
2018-09-01T12:25:40.204Z,101780.92
2018-09-01T12:30:43.853Z,101774.94
2018-09-01T12:35:47.627Z,101782.05
2018-09-01T12:40:51.135Z,101778.91
2018-09-01T12:45:54.689Z,101782.44
2018-09-01T12:50:58.296Z,101782.59
2018-09-01T12:56:03.130Z,101779.72
2018-09-01T13:01:07.151Z,101784.16
2018-09-01T13:06:11.377Z,101774.80
2018-09-01T13:11:15.011Z,101767.67
2018-09-01T13:16:19.049Z,101763.98
2018-09-01T13:21:22.698Z,101761.34
2018-09-01T13:26:26.636Z,101766.34
2018-09-01T13:31:30.969Z,101764.41
2018-09-01T13:36:34.591Z,101751.65
2018-09-01T13:41:38.387Z,101750.83
2018-09-01T13:46:42.043Z,101755.64
2018-09-01T13:51:45.570Z,101759.72
2018-09-01T13:56:49.523Z,101759.02
2018-09-01T14:01:53.032Z,101758.15
2018-09-01T14:06:58.577Z,101759.22
2018-09-01T14:12:02.845Z,101764.09
2018-09-01T14:17:07.063Z,101764.38
2018-09-01T14:22:10.567Z,101764.09
2018-09-01T14:27:14.801Z,101758.16
2018-09-01T14:32:18.312Z,101760.34
2018-09-01T14:37:21.933Z,101759.66
2018-09-01T14:42:25.416Z,101752.21
2018-09-01T14:47:29.135Z,101740.05
2018-09-01T14:52:32.648Z,101743.91
2018-09-01T14:57:36.197Z,101745.66
2018-09-01T15:02:39.667Z,101751.56
2018-09-01T15:07:43.245Z,101748.51
2018-09-01T15:12:46.836Z,101751.33
2018-09-01T15:17:50.416Z,101746.91
2018-09-01T15:22:54.102Z,101755.77
2018-09-01T15:27:57.669Z,101750.09
2018-09-01T15:33:02.145Z,101742.91
2018-09-01T15:38:05.918Z,101737.67
2018-09-01T15:43:09.489Z,101733.20
2018-09-01T15:48:13.506Z,101737.02
2018-09-01T15:53:17.222Z,101742.17
2018-09-01T15:58:20.782Z,101736.67
2018-09-01T16:03:24.494Z,101737.72
2018-09-01T16:08:28.106Z,101725.86
2018-09-01T16:13:31.915Z,101729.81
2018-09-01T16:40:28.072Z,101741.42
2018-09-01T16:45:31.686Z,101739.49
2018-09-01T16:50:35.297Z,101751.61
2018-09-01T16:55:38.859Z,101755.14
2018-09-01T17:00:42.562Z,101745.67
2018-09-01T17:05:46.025Z,101754.34
2018-09-01T17:10:49.617Z,101759.57
2018-09-01T17:15:53.669Z,101755.05
2018-09-01T17:20:57.192Z,101760.47
2018-09-01T17:26:00.767Z,101766.05
2018-09-01T17:31:04.603Z,101766.51
2018-09-01T17:36:08.137Z,101769.41
2018-09-01T17:41:11.825Z,101768.17
2018-09-01T17:46:16.807Z,101767.69
2018-09-01T17:51:20.461Z,101772.84
2018-09-01T17:56:24.704Z,101773.91
2018-09-01T18:01:28.716Z,101773.38
2018-09-01T18:06:32.285Z,101776.06
2018-09-01T18:11:35.867Z,101786.58
2018-09-01T18:16:39.751Z,101785.63
2018-09-01T18:21:43.291Z,101791.78
2018-09-01T18:26:46.781Z,101786.41
2018-09-01T18:31:51.202Z,101788.78
2018-09-01T18:36:55.087Z,101792.26
2018-09-01T18:41:58.999Z,101796.17
2018-09-01T18:47:02.947Z,101804.35
2018-09-01T18:52:06.971Z,101803.75
2018-09-01T18:57:10.889Z,101810.52
2018-09-01T19:02:15.348Z,101807.16
2018-09-01T19:07:18.915Z,101818.70
2018-09-01T19:12:22.799Z,101823.30
2018-09-01T19:17:26.348Z,101830.81
2018-09-01T19:22:37.164Z,101831.81
2018-09-01T19:27:40.669Z,101836.36
2018-09-01T19:32:44.465Z,101831.20
2018-09-01T19:37:47.944Z,101830.39
2018-09-01T19:42:52.016Z,101829.58
2018-09-01T19:47:55.457Z,101823.97
2018-09-01T19:53:00.203Z,101827.10
2018-09-01T19:58:03.742Z,101829.06
2018-09-01T20:03:07.506Z,101822.12
2018-09-01T20:08:11.642Z,101828.33
2018-09-01T20:13:15.398Z,101827.70
2018-09-01T20:18:18.905Z,101824.65
2018-09-01T20:23:22.465Z,101828.16
2018-09-01T20:28:26.870Z,101833.05
2018-09-01T20:33:30.695Z,101828.25
2018-09-01T20:38:34.209Z,101824.91
2018-09-01T20:43:37.784Z,101827.17
2018-09-01T20:48:41.267Z,101836.81
2018-09-01T20:53:44.980Z,101831.61
2018-09-01T20:58:48.617Z,101836.06
2018-09-01T21:03:52.849Z,101838.69
2018-09-01T21:08:56.393Z,101841.78
2018-09-01T21:14:00.082Z,101847.06
2018-09-01T21:19:03.549Z,101844.06
2018-09-01T21:24:07.297Z,101852.41
2018-09-01T21:29:11.338Z,101858.61
2018-09-01T21:34:14.999Z,101847.72
2018-09-01T21:39:18.894Z,101855.22
2018-09-01T21:44:22.701Z,101862.30
2018-09-01T21:49:26.313Z,101861.88
2018-09-01T21:54:29.987Z,101851.43
2018-09-01T21:59:34.858Z,101852.36
2018-09-01T22:04:43.901Z,101855.86
2018-09-01T22:09:47.718Z,101854.57
2018-09-01T22:14:52.655Z,101848.05
2018-09-01T22:19:56.182Z,101850.66
2018-09-01T22:24:59.786Z,101851.56
2018-09-01T22:30:17.340Z,101846.74
2018-09-01T22:35:20.889Z,101846.75
2018-09-01T22:40:24.707Z,101850.69
2018-09-01T22:45:28.754Z,101855.53
2018-09-01T22:50:32.714Z,101856.00
2018-09-01T22:55:36.178Z,101853.78
2018-09-01T23:00:39.707Z,101851.58
2018-09-01T23:05:43.319Z,101852.91
2018-09-01T23:10:46.914Z,101854.63
2018-09-01T23:15:50.578Z,101845.48
2018-09-01T23:20:54.545Z,101847.19
2018-09-01T23:25:58.008Z,101850.68
2018-09-01T23:31:01.574Z,101842.86
2018-09-01T23:36:05.139Z,101839.86
2018-09-01T23:41:08.954Z,101845.56
2018-09-01T23:46:12.893Z,101843.00
2018-09-01T23:51:16.409Z,101838.64
2018-09-01T23:56:20.380Z,101846.45
